createdAt,value
2023-05-10T00:02:03.856Z,87.02
2023-05-10T00:04:31.788Z,87.00
2023-05-10T00:06:59.405Z,86.87
2023-05-10T00:09:27.081Z,86.78
2023-05-10T00:11:54.970Z,86.69
2023-05-10T00:14:22.742Z,86.75
2023-05-10T00:16:50.768Z,86.74
2023-05-10T00:19:18.577Z,86.91
2023-05-10T00:21:46.205Z,86.62
2023-05-10T00:24:14.021Z,86.46
2023-05-10T00:26:43.354Z,86.56
2023-05-10T00:29:11.115Z,86.66
2023-05-10T00:31:38.882Z,86.63
2023-05-10T00:34:06.941Z,86.48
2023-05-10T00:36:34.665Z,86.33
2023-05-10T00:39:02.775Z,86.30
2023-05-10T00:41:33.357Z,86.44
2023-05-10T00:44:03.186Z,86.52
2023-05-10T00:46:31.396Z,86.40
2023-05-10T00:49:00.400Z,86.47
2023-05-10T00:51:28.111Z,86.43
2023-05-10T00:53:57.123Z,86.40
2023-05-10T00:56:25.768Z,86.20
2023-05-10T00:58:53.853Z,86.33
2023-05-10T01:01:21.769Z,86.40
2023-05-10T01:03:49.659Z,86.33
2023-05-10T01:06:17.518Z,86.44
2023-05-10T01:08:45.601Z,86.31
2023-05-10T01:11:13.818Z,86.15
2023-05-10T01:13:48.048Z,86.12
2023-05-10T01:16:16.603Z,86.22
2023-05-10T01:18:45.699Z,86.30
2023-05-10T01:21:19.928Z,86.32
2023-05-10T01:24:16.671Z,86.24
2023-05-10T01:26:47.362Z,86.26
2023-05-10T01:29:24.088Z,86.41
2023-05-10T01:32:30.403Z,86.38
2023-05-10T01:35:37.168Z,86.38
2023-05-10T01:38:25.718Z,86.13
2023-05-10T01:41:06.067Z,86.16
2023-05-10T01:43:47.256Z,86.16
2023-05-10T01:46:39.557Z,86.10
2023-05-10T01:49:15.043Z,86.21
2023-05-10T01:51:50.043Z,86.15
2023-05-10T01:54:22.664Z,86.35
2023-05-10T01:57:01.157Z,86.06
2023-05-10T01:59:37.382Z,86.04
2023-05-10T02:02:08.283Z,85.70
2023-05-10T02:04:40.756Z,85.72
2023-05-10T02:07:10.772Z,85.74
2023-05-10T02:09:41.060Z,85.83
2023-05-10T02:12:10.535Z,85.94
2023-05-10T02:14:40.550Z,85.85
2023-05-10T02:17:10.080Z,85.87
2023-05-10T02:19:42.836Z,85.76
2023-05-10T02:22:12.822Z,85.61
2023-05-10T02:24:42.289Z,85.60
2023-05-10T02:27:12.573Z,85.78
2023-05-10T02:29:41.631Z,85.72
2023-05-10T02:32:13.454Z,85.67
2023-05-10T02:34:43.162Z,85.35
2023-05-10T02:37:13.044Z,85.39
2023-05-10T02:39:45.066Z,85.45
2023-05-10T02:42:19.606Z,85.35
2023-05-10T02:45:00.676Z,85.26
2023-05-10T02:47:32.398Z,85.52
2023-05-10T02:50:00.578Z,85.67
2023-05-10T02:52:36.393Z,85.52
2023-05-10T02:55:08.978Z,85.51
2023-05-10T02:57:43.070Z,85.32
2023-05-10T03:00:11.360Z,85.17
2023-05-10T03:02:39.172Z,85.23
2023-05-10T03:05:07.336Z,85.40
2023-05-10T03:07:36.826Z,85.23
2023-05-10T03:10:06.515Z,85.03
2023-05-10T03:12:47.239Z,85.04
2023-05-10T03:15:31.059Z,85.01
2023-05-10T03:18:12.114Z,84.69
2023-05-10T03:20:42.613Z,84.78
2023-05-10T03:23:41.431Z,84.98
2023-05-10T03:26:11.373Z,85.00
2023-05-10T03:28:40.900Z,85.03
2023-05-10T03:31:10.299Z,85.20
2023-05-10T03:33:54.381Z,85.13
2023-05-10T03:36:26.361Z,85.09
2023-05-10T03:38:54.840Z,85.02
2023-05-10T03:41:22.695Z,84.86
2023-05-10T03:43:50.523Z,85.08
2023-05-10T03:46:18.165Z,85.26
2023-05-10T03:48:46.704Z,85.24
2023-05-10T03:51:14.526Z,85.07
2023-05-10T03:53:42.133Z,84.80
2023-05-10T03:56:09.839Z,84.87
2023-05-10T03:58:38.062Z,84.80
2023-05-10T04:01:06.102Z,84.68
2023-05-10T04:03:33.837Z,84.44
2023-05-10T04:06:05.604Z,84.66
2023-05-10T04:08:34.292Z,84.83
2023-05-10T04:11:12.618Z,84.85
2023-05-10T04:13:40.531Z,84.80
2023-05-10T04:16:08.390Z,84.86
2023-05-10T04:18:36.883Z,84.91
2023-05-10T04:21:04.593Z,84.84
2023-05-10T04:23:32.272Z,84.70
2023-05-10T04:26:03.453Z,84.98
2023-05-10T04:28:31.307Z,84.91
2023-05-10T04:31:07.182Z,84.78
2023-05-10T04:33:35.708Z,84.97
2023-05-10T04:36:04.157Z,85.04
2023-05-10T04:38:32.216Z,84.86
2023-05-10T04:41:10.404Z,85.08
2023-05-10T04:43:39.537Z,85.16
2023-05-10T04:46:08.621Z,85.18
2023-05-10T04:48:37.198Z,85.26
2023-05-10T04:51:05.159Z,85.19
2023-05-10T04:53:34.082Z,85.32
2023-05-10T04:56:01.864Z,85.11
2023-05-10T04:58:29.578Z,85.11
2023-05-10T05:00:57.552Z,85.17
2023-05-10T05:03:25.250Z,84.94
2023-05-10T05:05:53.207Z,85.17
2023-05-10T05:08:20.841Z,85.18
2023-05-10T05:10:51.212Z,85.31
2023-05-10T05:13:19.448Z,85.45
2023-05-10T05:15:47.415Z,85.51
2023-05-10T05:18:15.510Z,85.54
2023-05-10T05:20:43.204Z,85.78
2023-05-10T05:23:10.888Z,85.58
2023-05-10T05:25:38.623Z,85.55
2023-05-10T05:28:06.481Z,85.47
2023-05-10T05:30:34.169Z,85.52
2023-05-10T05:33:01.942Z,85.49
2023-05-10T05:35:29.629Z,85.38
2023-05-10T05:37:57.336Z,85.39
2023-05-10T05:40:25.234Z,85.38
2023-05-10T05:42:53.472Z,85.44
2023-05-10T05:45:22.224Z,85.44
2023-05-10T05:47:50.071Z,85.53
2023-05-10T05:50:18.075Z,85.39
2023-05-10T05:52:45.857Z,85.40
2023-05-10T05:55:13.945Z,85.49
2023-05-10T05:57:41.759Z,85.56
2023-05-10T06:00:10.009Z,85.51
2023-05-10T06:02:40.989Z,85.55
2023-05-10T06:05:09.346Z,85.55
2023-05-10T06:07:37.363Z,85.45
2023-05-10T06:10:05.842Z,85.59
2023-05-10T06:12:34.126Z,85.63
2023-05-10T06:15:01.798Z,85.58
2023-05-10T06:17:29.834Z,85.60
2023-05-10T06:19:57.875Z,85.99
2023-05-10T06:22:27.646Z,86.35
2023-05-10T06:24:55.466Z,86.38
2023-05-10T06:27:23.235Z,86.17
2023-05-10T06:29:56.378Z,86.03
2023-05-10T06:32:27.187Z,85.97
2023-05-10T06:34:55.052Z,86.14
2023-05-10T06:37:22.683Z,86.22
2023-05-10T06:39:50.476Z,86.05
2023-05-10T06:42:18.276Z,85.67
2023-05-10T06:44:48.023Z,86.12
2023-05-10T06:47:15.726Z,86.04
2023-05-10T06:49:43.554Z,86.16
2023-05-10T06:52:11.230Z,86.09
2023-05-10T06:54:39.129Z,85.95
2023-05-10T06:57:16.076Z,85.68
2023-05-10T06:59:51.831Z,85.91
2023-05-10T07:02:19.752Z,85.95
2023-05-10T07:04:49.288Z,85.88
2023-05-10T07:07:17.203Z,85.90
2023-05-10T07:09:44.928Z,86.07
2023-05-10T07:12:14.720Z,85.93
2023-05-10T07:14:43.499Z,86.14
2023-05-10T07:17:11.454Z,86.27
2023-05-10T07:19:39.174Z,86.07
2023-05-10T07:22:07.106Z,86.38
2023-05-10T07:24:35.058Z,86.49
2023-05-10T07:27:04.166Z,86.50
2023-05-10T07:29:32.009Z,86.49
2023-05-10T07:32:00.076Z,86.32
2023-05-10T07:34:28.206Z,86.32
2023-05-10T07:36:56.537Z,86.24
2023-05-10T07:39:27.110Z,86.16
2023-05-10T07:41:57.023Z,86.12
2023-05-10T07:44:24.923Z,86.08
2023-05-10T07:46:53.367Z,85.74
2023-05-10T07:49:21.310Z,85.54
2023-05-10T07:51:49.620Z,85.75
2023-05-10T07:54:22.322Z,85.94
2023-05-10T07:56:50.223Z,85.69
2023-05-10T07:59:19.035Z,85.41
2023-05-10T08:01:47.158Z,85.08
2023-05-10T08:04:14.979Z,85.38
2023-05-10T08:06:43.085Z,85.38
2023-05-10T08:09:11.957Z,84.93
2023-05-10T08:11:40.119Z,85.15
2023-05-10T08:14:07.997Z,85.07
2023-05-10T08:16:36.207Z,85.06
2023-05-10T08:19:04.208Z,84.99
2023-05-10T08:21:32.802Z,85.07
2023-05-10T08:24:00.594Z,84.68
2023-05-10T08:26:28.595Z,84.47
2023-05-10T08:28:56.220Z,83.99
2023-05-10T08:31:24.032Z,84.67
2023-05-10T08:33:53.626Z,84.57
2023-05-10T08:36:22.998Z,84.41
2023-05-10T08:38:56.058Z,83.78
2023-05-10T08:41:25.736Z,83.62
2023-05-10T08:43:56.738Z,83.66
2023-05-10T08:46:25.382Z,83.73
2023-05-10T08:48:54.830Z,83.79
2023-05-10T08:51:27.919Z,83.99
2023-05-10T08:53:56.558Z,83.68
2023-05-10T08:56:25.161Z,83.27
2023-05-10T08:58:53.294Z,83.02
2023-05-10T09:01:22.862Z,83.28
2023-05-10T09:03:52.842Z,83.46
2023-05-10T09:06:20.936Z,83.40
2023-05-10T09:08:49.391Z,84.00
2023-05-10T09:11:21.956Z,83.26
2023-05-10T09:13:53.482Z,83.43
2023-05-10T09:16:22.684Z,83.64
2023-05-10T09:18:51.193Z,83.78
2023-05-10T09:21:20.808Z,83.46
2023-05-10T09:23:51.323Z,83.45
2023-05-10T09:26:24.538Z,84.20
2023-05-10T09:28:55.577Z,84.18
2023-05-10T09:31:26.305Z,84.00
2023-05-10T09:33:54.583Z,84.25
2023-05-10T09:36:22.921Z,84.44
2023-05-10T09:38:53.816Z,84.72
2023-05-10T09:41:24.344Z,84.50
2023-05-10T09:43:57.301Z,84.10
2023-05-10T09:46:25.784Z,84.08
2023-05-10T09:48:54.104Z,83.98
2023-05-10T09:51:28.522Z,83.70
2023-05-10T09:54:14.510Z,83.66
2023-05-10T09:56:44.489Z,83.47
2023-05-10T09:59:14.860Z,83.67
2023-05-10T10:01:43.814Z,83.55
2023-05-10T10:04:12.619Z,83.28
2023-05-10T10:06:41.965Z,83.85
2023-05-10T10:09:10.687Z,83.65
2023-05-10T10:11:40.051Z,83.17
2023-05-10T10:14:08.106Z,83.45
2023-05-10T10:16:36.248Z,83.46
2023-05-10T10:19:04.171Z,82.39
2023-05-10T10:21:32.540Z,82.03
2023-05-10T10:24:00.197Z,81.69
2023-05-10T10:26:28.552Z,81.23
2023-05-10T10:29:34.915Z,80.30
2023-05-10T10:32:39.062Z,81.53
2023-05-10T10:35:08.107Z,80.96
2023-05-10T10:37:47.490Z,79.55
2023-05-10T10:40:29.591Z,80.00
2023-05-10T10:42:59.160Z,79.29
2023-05-10T10:45:27.805Z,80.00
2023-05-10T10:48:22.774Z,79.44
2023-05-10T10:50:59.060Z,80.60
2023-05-10T10:53:30.108Z,80.74
2023-05-10T10:56:10.312Z,80.61
2023-05-10T10:58:40.089Z,80.78
2023-05-10T11:01:19.597Z,79.15
2023-05-10T11:04:06.020Z,75.97
2023-05-10T11:06:37.847Z,77.68
2023-05-10T11:09:10.572Z,77.49
2023-05-10T11:11:59.588Z,76.82
2023-05-10T11:14:27.432Z,76.06
2023-05-10T11:16:55.346Z,75.46
2023-05-10T11:19:28.211Z,75.36
2023-05-10T11:22:07.877Z,76.24
2023-05-10T11:24:36.956Z,76.79
2023-05-10T11:27:04.805Z,76.88
2023-05-10T11:29:32.577Z,77.02
2023-05-10T11:32:01.655Z,76.77
2023-05-10T11:34:32.514Z,77.71
2023-05-10T11:37:00.875Z,78.51
2023-05-10T11:39:34.537Z,78.07
2023-05-10T11:42:02.353Z,77.59
2023-05-10T11:44:34.361Z,78.14
2023-05-10T11:47:04.810Z,78.14
2023-05-10T11:49:32.574Z,77.95
2023-05-10T11:52:12.399Z,78.27
2023-05-10T11:54:52.938Z,77.12
2023-05-10T11:57:22.049Z,76.54
2023-05-10T11:59:54.158Z,74.66
2023-05-10T12:02:22.067Z,76.13
2023-05-10T12:04:50.407Z,74.95
2023-05-10T12:07:18.492Z,73.35
2023-05-10T12:10:03.549Z,74.70
2023-05-10T12:12:45.041Z,74.60
2023-05-10T12:15:25.849Z,75.30
2023-05-10T12:17:53.630Z,72.94
2023-05-10T12:20:28.436Z,71.93
2023-05-10T12:23:00.521Z,67.77
2023-05-10T12:25:34.156Z,67.71
2023-05-10T12:28:06.304Z,71.46
2023-05-10T12:30:36.807Z,70.27
2023-05-10T12:33:11.797Z,68.89
2023-05-10T12:35:53.712Z,68.71
2023-05-10T12:38:39.388Z,69.65
2023-05-10T12:41:10.645Z,69.31
2023-05-10T12:43:39.745Z,66.51
2023-05-10T12:46:12.907Z,68.36
2023-05-10T12:48:42.582Z,70.19
2023-05-10T12:51:12.789Z,67.99
2023-05-10T12:53:46.123Z,69.05
2023-05-10T12:56:15.436Z,71.37
2023-05-10T12:58:43.153Z,70.81
2023-05-10T13:01:11.358Z,71.92
2023-05-10T13:03:39.146Z,72.66
2023-05-10T13:06:07.470Z,72.33
2023-05-10T13:08:35.587Z,72.15
2023-05-10T13:11:04.869Z,68.56
2023-05-10T13:13:33.237Z,69.74
2023-05-10T13:16:01.468Z,70.65
2023-05-10T13:18:29.513Z,68.70
2023-05-10T13:20:57.376Z,68.04
2023-05-10T13:23:25.147Z,70.08
2023-05-10T13:25:53.291Z,68.50
2023-05-10T13:28:21.111Z,70.78
2023-05-10T13:30:48.766Z,69.26
2023-05-10T13:33:16.464Z,68.86
2023-05-10T13:35:45.021Z,71.02
2023-05-10T13:38:13.845Z,71.28
2023-05-10T13:40:41.666Z,70.01
2023-05-10T13:43:09.318Z,71.48
2023-05-10T13:45:37.629Z,72.80
2023-05-10T13:48:05.818Z,69.82
2023-05-10T13:50:33.628Z,69.62
2023-05-10T13:53:01.303Z,71.33
2023-05-10T13:55:29.788Z,71.36
2023-05-10T13:57:57.431Z,68.35
2023-05-10T14:00:25.074Z,70.70
2023-05-10T14:02:53.198Z,70.88
2023-05-10T14:05:25.265Z,72.17
2023-05-10T14:07:54.787Z,72.30
2023-05-10T14:10:22.516Z,73.06
2023-05-10T14:12:51.007Z,71.80
2023-05-10T14:15:19.271Z,72.60
2023-05-10T14:17:47.185Z,71.25
2023-05-10T14:20:15.063Z,68.39
2023-05-10T14:22:42.742Z,71.68
2023-05-10T14:25:11.695Z,72.13
2023-05-10T14:27:39.345Z,72.02
2023-05-10T14:30:08.371Z,72.53
2023-05-10T14:32:40.453Z,73.41
2023-05-10T14:35:10.089Z,73.75
2023-05-10T14:37:39.407Z,73.18
2023-05-10T14:40:08.411Z,72.58
2023-05-10T14:42:36.379Z,72.69
2023-05-10T14:45:05.010Z,71.07
2023-05-10T14:47:35.966Z,69.90
2023-05-10T14:50:04.026Z,69.55
2023-05-10T14:52:34.270Z,72.67
2023-05-10T14:55:02.525Z,71.02
2023-05-10T14:57:30.812Z,73.45
2023-05-10T14:59:58.814Z,71.37
2023-05-10T15:02:26.960Z,70.28
2023-05-10T15:04:55.014Z,67.60
2023-05-10T15:07:23.456Z,70.13
2023-05-10T15:09:53.001Z,68.88
2023-05-10T15:12:21.364Z,69.70
2023-05-10T15:14:49.104Z,71.03
2023-05-10T15:17:17.750Z,70.81
2023-05-10T15:19:45.841Z,72.06
2023-05-10T15:22:13.575Z,71.53
2023-05-10T15:24:41.250Z,71.57
2023-05-10T15:27:09.800Z,71.64
2023-05-10T15:29:40.834Z,72.35
2023-05-10T15:32:08.782Z,72.23
2023-05-10T15:34:39.393Z,74.00
2023-05-10T15:37:07.341Z,73.49
2023-05-10T15:39:35.168Z,74.08
2023-05-10T15:42:04.169Z,75.48
2023-05-10T15:44:31.961Z,75.25
2023-05-10T15:46:59.853Z,74.20
2023-05-10T15:49:27.567Z,74.48
2023-05-10T15:51:55.283Z,74.11
2023-05-10T15:54:23.349Z,74.65
2023-05-10T15:56:51.039Z,74.00
2023-05-10T15:59:18.662Z,73.21
2023-05-10T16:01:46.844Z,74.81
2023-05-10T16:04:14.716Z,72.65
2023-05-10T16:06:42.774Z,73.71
2023-05-10T16:09:10.804Z,75.65
2023-05-10T16:11:41.156Z,75.10
2023-05-10T16:14:08.830Z,74.45
2023-05-10T16:16:38.198Z,72.84
2023-05-10T16:19:06.221Z,72.55
2023-05-10T16:21:34.293Z,71.90
2023-05-10T16:24:05.235Z,72.48
2023-05-10T16:26:39.634Z,72.12
2023-05-10T16:29:09.001Z,73.59
2023-05-10T16:31:37.437Z,72.21
2023-05-10T16:34:05.373Z,71.44
2023-05-10T16:36:33.993Z,70.10
2023-05-10T16:39:01.916Z,71.82
2023-05-10T16:41:32.580Z,71.84
2023-05-10T16:44:00.683Z,71.19
2023-05-10T16:46:28.662Z,71.04
2023-05-10T16:48:56.476Z,72.52
2023-05-10T16:51:24.216Z,71.87
2023-05-10T16:53:53.107Z,70.91
2023-05-10T16:56:22.452Z,72.13
2023-05-10T16:58:50.138Z,73.09
2023-05-10T17:01:18.030Z,73.55
2023-05-10T17:03:46.236Z,73.19
2023-05-10T17:06:14.357Z,72.90
2023-05-10T17:08:42.176Z,72.38
2023-05-10T17:11:09.998Z,72.92
2023-05-10T17:13:38.959Z,72.16
2023-05-10T17:16:08.237Z,72.62
2023-05-10T17:18:36.810Z,73.21
2023-05-10T17:21:04.793Z,74.12
2023-05-10T17:23:32.498Z,73.67
2023-05-10T17:26:01.662Z,75.38
2023-05-10T17:28:30.079Z,74.56
2023-05-10T17:30:58.669Z,74.90
2023-05-10T17:33:26.749Z,74.24
2023-05-10T17:35:55.255Z,72.91
2023-05-10T17:38:22.893Z,72.83
2023-05-10T17:40:51.177Z,72.77
2023-05-10T17:43:18.833Z,73.32
2023-05-10T17:45:49.546Z,73.51
2023-05-10T17:48:17.482Z,73.00
2023-05-10T17:50:45.586Z,74.31
2023-05-10T17:53:13.324Z,74.05
2023-05-10T17:55:41.817Z,75.26
2023-05-10T17:58:11.662Z,74.28
2023-05-10T18:00:39.640Z,75.21
2023-05-10T18:03:07.798Z,75.59
2023-05-10T18:05:40.200Z,75.91
2023-05-10T18:08:08.680Z,75.75
2023-05-10T18:10:40.027Z,75.94
2023-05-10T18:13:09.553Z,76.12
2023-05-10T18:15:37.642Z,76.37
2023-05-10T18:18:06.485Z,76.24
2023-05-10T18:20:34.405Z,76.12
2023-05-10T18:23:02.675Z,75.55
2023-05-10T18:25:30.470Z,75.25
2023-05-10T18:27:58.619Z,76.27
2023-05-10T18:30:26.650Z,75.20
2023-05-10T18:32:55.116Z,75.55
2023-05-10T18:35:23.060Z,75.56
2023-05-10T18:37:52.655Z,75.63
2023-05-10T18:40:20.689Z,76.20
2023-05-10T18:42:50.137Z,76.06
2023-05-10T18:45:18.122Z,76.54
2023-05-10T18:47:46.148Z,76.67
2023-05-10T18:50:14.024Z,76.97
2023-05-10T18:52:41.916Z,76.73
2023-05-10T18:55:10.391Z,76.99
2023-05-10T18:57:41.702Z,77.43
2023-05-10T19:00:12.440Z,77.37
2023-05-10T19:02:41.426Z,77.11
2023-05-10T19:05:09.685Z,76.92
2023-05-10T19:07:37.550Z,77.03
2023-05-10T19:10:08.176Z,77.15
2023-05-10T19:12:36.392Z,77.11
2023-05-10T19:15:04.591Z,77.30
2023-05-10T19:17:32.341Z,77.38
2023-05-10T19:20:00.117Z,77.54
2023-05-10T19:22:44.947Z,77.74
2023-05-10T19:25:17.695Z,78.08
2023-05-10T19:27:45.599Z,78.16
2023-05-10T19:30:13.490Z,78.16
2023-05-10T19:32:44.252Z,78.09
2023-05-10T19:35:13.776Z,78.54
2023-05-10T19:37:46.183Z,78.92
2023-05-10T19:40:18.743Z,79.14
2023-05-10T19:42:46.519Z,79.28
2023-05-10T19:45:16.065Z,79.31
2023-05-10T19:47:44.294Z,79.43
2023-05-10T19:50:12.545Z,79.81
2023-05-10T19:52:40.831Z,79.99
2023-05-10T19:55:09.363Z,80.03
2023-05-10T19:57:37.521Z,80.05
2023-05-10T20:00:07.036Z,80.10
2023-05-10T20:02:39.007Z,80.12
2023-05-10T20:05:07.354Z,79.83
2023-05-10T20:07:35.016Z,79.91
2023-05-10T20:10:03.403Z,80.15
2023-05-10T20:12:31.323Z,80.26
2023-05-10T20:14:59.249Z,80.22
2023-05-10T20:17:27.058Z,80.04
2023-05-10T20:19:54.818Z,80.04
2023-05-10T20:22:22.546Z,80.60
2023-05-10T20:24:50.544Z,81.20
2023-05-10T20:27:21.110Z,81.44
2023-05-10T20:29:48.831Z,81.24
2023-05-10T20:32:16.575Z,80.92
2023-05-10T20:34:44.241Z,81.02
2023-05-10T20:37:11.945Z,81.04
2023-05-10T20:39:39.762Z,80.83
2023-05-10T20:42:16.447Z,80.71
2023-05-10T20:44:44.475Z,80.85
2023-05-10T20:47:14.587Z,80.46
2023-05-10T20:49:42.823Z,80.58
2023-05-10T20:52:10.653Z,80.35
2023-05-10T20:54:38.776Z,80.79
2023-05-10T20:57:07.205Z,81.00
2023-05-10T20:59:35.310Z,80.99
2023-05-10T21:02:03.498Z,81.09
2023-05-10T21:04:32.011Z,81.59
2023-05-10T21:06:59.829Z,81.68
2023-05-10T21:09:27.608Z,81.82
2023-05-10T21:11:56.390Z,82.19
2023-05-10T21:14:24.245Z,82.40
2023-05-10T21:16:52.464Z,82.55
2023-05-10T21:19:20.270Z,82.81
2023-05-10T21:21:48.180Z,83.16
2023-05-10T21:24:18.186Z,83.36
2023-05-10T21:26:46.505Z,83.34
2023-05-10T21:29:14.390Z,83.35
2023-05-10T21:31:44.734Z,83.76
2023-05-10T21:34:14.305Z,83.56
2023-05-10T21:36:43.141Z,83.69
2023-05-10T21:39:11.781Z,83.75
2023-05-10T21:41:39.465Z,83.72
2023-05-10T21:44:07.335Z,83.78
2023-05-10T21:46:37.807Z,84.01
2023-05-10T21:49:08.102Z,83.87
2023-05-10T21:51:35.992Z,84.01
2023-05-10T21:54:04.156Z,83.79
2023-05-10T21:56:31.904Z,83.83
2023-05-10T21:58:59.743Z,83.97
2023-05-10T22:01:28.504Z,84.14
2023-05-10T22:03:56.180Z,84.12
2023-05-10T22:06:23.962Z,84.10
2023-05-10T22:08:52.007Z,84.02
2023-05-10T22:11:19.749Z,83.87
2023-05-10T22:13:47.471Z,83.99
2023-05-10T22:16:15.602Z,84.17
2023-05-10T22:18:44.223Z,84.19
2023-05-10T22:21:13.036Z,84.27
2023-05-10T22:23:40.689Z,84.35
2023-05-10T22:26:08.571Z,84.27
2023-05-10T22:28:36.668Z,84.25
2023-05-10T22:31:08.960Z,84.34
2023-05-10T22:33:37.143Z,84.39
2023-05-10T22:36:05.362Z,84.38
2023-05-10T22:38:33.421Z,84.50
2023-05-10T22:41:01.480Z,84.53
2023-05-10T22:43:29.179Z,84.47
2023-05-10T22:45:56.967Z,84.31
2023-05-10T22:48:24.754Z,84.35
2023-05-10T22:50:52.587Z,84.51
2023-05-10T22:53:20.366Z,84.45
2023-05-10T22:55:48.244Z,84.16
2023-05-10T22:58:16.081Z,84.19
2023-05-10T23:00:43.880Z,84.04
2023-05-10T23:03:11.722Z,84.04
2023-05-10T23:05:39.743Z,84.05
2023-05-10T23:08:07.533Z,84.08
2023-05-10T23:10:37.595Z,84.08
2023-05-10T23:13:08.031Z,84.23
2023-05-10T23:15:36.437Z,84.23
2023-05-10T23:18:06.080Z,84.14
2023-05-10T23:20:34.120Z,84.38
2023-05-10T23:23:02.166Z,84.51
2023-05-10T23:25:29.944Z,84.49
2023-05-10T23:27:57.803Z,84.41
2023-05-10T23:30:26.948Z,84.23
2023-05-10T23:32:54.710Z,84.27
2023-05-10T23:35:22.558Z,84.32
2023-05-10T23:37:50.275Z,84.38
2023-05-10T23:40:18.317Z,84.29
2023-05-10T23:42:46.261Z,84.20
2023-05-10T23:45:14.154Z,84.18
2023-05-10T23:47:42.037Z,84.19
2023-05-10T23:50:10.401Z,84.06
2023-05-10T23:52:38.292Z,84.25
2023-05-10T23:55:06.810Z,84.38
2023-05-10T23:57:34.605Z,84.35
